createdAt,value
2022-10-30T00:01:15.550Z,100617.80
2022-10-30T00:03:43.819Z,100617.98
2022-10-30T00:06:11.327Z,100613.89
2022-10-30T00:08:38.736Z,100610.70
2022-10-30T00:11:08.357Z,100608.46
2022-10-30T00:13:35.801Z,100614.27
2022-10-30T00:16:06.509Z,100615.84
2022-10-30T00:18:36.090Z,100620.89
2022-10-30T00:21:21.723Z,100618.92
2022-10-30T00:23:50.742Z,100616.84
2022-10-30T00:26:20.259Z,100621.20
2022-10-30T00:28:55.362Z,100618.95
2022-10-30T00:31:23.107Z,100617.77
2022-10-30T00:33:53.995Z,100617.73
2022-10-30T00:36:23.577Z,100619.93
2022-10-30T00:38:51.119Z,100616.35
2022-10-30T00:41:22.980Z,100613.52
2022-10-30T00:43:50.643Z,100614.02
2022-10-30T00:46:27.325Z,100609.70
2022-10-30T00:49:02.705Z,100607.89
2022-10-30T00:51:31.435Z,100608.11
2022-10-30T00:54:00.505Z,100602.48
2022-10-30T00:56:27.998Z,100602.06
2022-10-30T00:59:00.670Z,100606.86
2022-10-30T01:01:29.721Z,100593.52
2022-10-30T01:03:58.855Z,100595.51
2022-10-30T01:06:27.249Z,100599.45
2022-10-30T01:08:58.803Z,100594.77
2022-10-30T01:11:28.001Z,100593.38
2022-10-30T01:13:58.696Z,100593.20
2022-10-30T01:16:38.788Z,100585.20
2022-10-30T01:19:33.289Z,100575.30
2022-10-30T01:22:06.249Z,100572.20
2022-10-30T01:24:44.260Z,100572.52
2022-10-30T01:27:20.416Z,100575.33
2022-10-30T01:30:08.560Z,100578.83
2022-10-30T01:32:45.781Z,100585.76
2022-10-30T01:35:38.916Z,100590.86
2022-10-30T01:38:12.329Z,100594.70
2022-10-30T01:40:40.478Z,100597.60
2022-10-30T01:43:09.679Z,100593.68
2022-10-30T01:46:25.565Z,100589.39
2022-10-30T01:49:20.603Z,100586.83
2022-10-30T01:51:59.283Z,100590.88
2022-10-30T01:54:27.461Z,100587.83
2022-10-30T01:57:19.909Z,100588.90
2022-10-30T01:59:58.734Z,100585.52
2022-10-30T02:02:26.387Z,100579.51
2022-10-30T02:04:54.351Z,100579.69
2022-10-30T02:07:21.906Z,100584.20
2022-10-30T02:09:52.353Z,100585.39
2022-10-30T02:12:20.708Z,100585.27
2022-10-30T02:14:51.589Z,100584.44
2022-10-30T02:17:19.938Z,100587.98
2022-10-30T02:19:50.159Z,100590.08
2022-10-30T02:22:18.483Z,100594.31
2022-10-30T02:24:46.296Z,100601.25
2022-10-30T02:27:13.543Z,100606.56
2022-10-30T02:29:41.319Z,100608.23
2022-10-30T02:32:08.584Z,100608.77
2022-10-30T02:34:37.255Z,100602.40
2022-10-30T02:37:04.387Z,100602.03
2022-10-30T02:39:31.769Z,100602.78
2022-10-30T02:42:02.399Z,100604.29
2022-10-30T02:44:29.959Z,100598.92
2022-10-30T02:46:57.301Z,100595.61
2022-10-30T02:49:24.658Z,100586.77
2022-10-30T02:51:51.922Z,100576.48
2022-10-30T02:54:19.144Z,100573.16
2022-10-30T02:56:46.620Z,100573.77
2022-10-30T02:59:15.082Z,100579.13
2022-10-30T03:01:42.919Z,100578.42
2022-10-30T03:04:10.643Z,100572.70
2022-10-30T03:06:37.868Z,100573.54
2022-10-30T03:09:05.436Z,100579.18
2022-10-30T03:11:34.647Z,100577.48
2022-10-30T03:14:01.800Z,100575.27
2022-10-30T03:16:34.068Z,100579.46
2022-10-30T03:19:01.590Z,100578.38
2022-10-30T03:21:29.051Z,100578.38
2022-10-30T03:23:57.011Z,100577.59
2022-10-30T03:26:24.305Z,100580.57
2022-10-30T03:28:55.438Z,100579.40
2022-10-30T03:31:23.599Z,100579.29
2022-10-30T03:34:08.280Z,100580.77
2022-10-30T03:36:35.609Z,100580.03
2022-10-30T03:39:02.868Z,100579.19
2022-10-30T03:41:31.039Z,100576.55
2022-10-30T03:43:58.498Z,100570.55
2022-10-30T03:46:25.740Z,100574.67
2022-10-30T03:48:54.957Z,100578.81
2022-10-30T03:51:22.398Z,100573.94
2022-10-30T03:53:50.304Z,100572.87
2022-10-30T03:56:17.740Z,100569.91
2022-10-30T03:58:47.961Z,100570.61
2022-10-30T04:01:19.137Z,100569.81
2022-10-30T04:03:49.306Z,100564.77
2022-10-30T04:06:16.880Z,100565.89
2022-10-30T04:08:44.343Z,100562.73
2022-10-30T04:11:12.673Z,100565.41
2022-10-30T04:13:40.287Z,100569.55
2022-10-30T04:16:07.999Z,100566.98
2022-10-30T04:18:35.176Z,100566.11
2022-10-30T04:21:02.542Z,100560.74
2022-10-30T04:23:29.799Z,100556.46
2022-10-30T04:25:57.229Z,100553.16
2022-10-30T04:28:24.700Z,100547.89
2022-10-30T04:30:51.959Z,100549.17
2022-10-30T04:33:19.922Z,100543.52
2022-10-30T04:35:49.114Z,100542.76
2022-10-30T04:38:19.956Z,100539.07
2022-10-30T04:40:47.710Z,100535.84
2022-10-30T04:43:16.492Z,100540.30
2022-10-30T04:45:47.057Z,100544.58
2022-10-30T04:48:16.175Z,100540.46
2022-10-30T04:50:44.497Z,100534.52
2022-10-30T04:53:16.581Z,100535.90
2022-10-30T04:55:45.153Z,100536.48
2022-10-30T04:58:13.629Z,100537.71
2022-10-30T05:00:42.864Z,100540.83
2022-10-30T05:03:24.598Z,100543.66
2022-10-30T05:06:02.244Z,100545.73
2022-10-30T05:08:30.467Z,100544.19
2022-10-30T05:10:59.600Z,100543.70
2022-10-30T05:13:29.121Z,100540.83
2022-10-30T05:15:57.413Z,100542.91
2022-10-30T05:18:24.767Z,100543.23
2022-10-30T05:20:52.093Z,100537.70
2022-10-30T05:23:19.557Z,100540.77
2022-10-30T05:25:46.906Z,100537.75
2022-10-30T05:28:15.185Z,100541.73
2022-10-30T05:30:46.613Z,100544.88
2022-10-30T05:33:32.240Z,100543.11
2022-10-30T05:35:59.555Z,100544.34
2022-10-30T05:38:27.827Z,100541.45
2022-10-30T05:40:55.247Z,100546.31
2022-10-30T05:43:23.563Z,100545.23
2022-10-30T05:45:50.803Z,100547.26
2022-10-30T05:48:18.499Z,100547.67
2022-10-30T05:50:46.638Z,100546.48
2022-10-30T05:53:20.892Z,100549.16
2022-10-30T05:55:48.322Z,100554.73
2022-10-30T05:58:21.407Z,100553.86
2022-10-30T06:00:48.702Z,100551.36
2022-10-30T06:03:18.774Z,100549.11
2022-10-30T06:05:47.465Z,100547.71
2022-10-30T06:08:18.299Z,100549.05
2022-10-30T06:10:46.770Z,100546.40
2022-10-30T06:13:21.909Z,100544.69
2022-10-30T06:16:10.062Z,100549.66
2022-10-30T06:19:06.809Z,100552.81
2022-10-30T06:21:34.577Z,100555.06
2022-10-30T06:24:12.687Z,100559.88
2022-10-30T06:26:51.418Z,100562.95
2022-10-30T06:29:18.657Z,100563.60
2022-10-30T06:31:46.297Z,100567.19
2022-10-30T06:34:13.878Z,100574.17
2022-10-30T06:36:42.312Z,100573.72
2022-10-30T06:39:10.142Z,100572.08
2022-10-30T06:41:44.221Z,100575.58
2022-10-30T06:44:32.381Z,100580.34
2022-10-30T06:46:59.930Z,100582.76
2022-10-30T06:49:27.480Z,100585.48
2022-10-30T06:51:55.162Z,100587.05
2022-10-30T06:54:22.744Z,100587.11
2022-10-30T06:57:02.561Z,100584.11
2022-10-30T07:00:06.795Z,100591.61
2022-10-30T07:03:02.516Z,100593.59
2022-10-30T07:05:30.764Z,100596.69
2022-10-30T07:07:58.419Z,100595.02
2022-10-30T07:10:25.700Z,100594.63
2022-10-30T07:13:28.164Z,100587.96
2022-10-30T07:16:07.300Z,100582.67
2022-10-30T07:18:38.217Z,100587.55
2022-10-30T07:21:06.346Z,100594.97
2022-10-30T07:23:33.745Z,100601.00
2022-10-30T07:26:18.120Z,100603.34
2022-10-30T07:28:48.239Z,100604.59
2022-10-30T07:31:42.654Z,100595.15
2022-10-30T07:34:35.356Z,100598.85
2022-10-30T07:37:30.395Z,100599.83
2022-10-30T07:40:12.301Z,100595.32
2022-10-30T07:43:18.615Z,100597.77
2022-10-30T07:46:21.514Z,100603.29
2022-10-30T07:49:07.317Z,100604.70
2022-10-30T07:51:44.479Z,100595.30
2022-10-30T07:54:13.280Z,100599.48
2022-10-30T07:56:40.769Z,100600.38
2022-10-30T07:59:26.860Z,100604.59
2022-10-30T08:02:14.917Z,100602.40
2022-10-30T08:04:59.742Z,100595.45
2022-10-30T08:07:56.357Z,100601.21
2022-10-30T08:10:23.922Z,100604.65
2022-10-30T08:12:51.597Z,100603.89
2022-10-30T08:15:19.159Z,100607.25
2022-10-30T08:17:48.860Z,100612.02
2022-10-30T08:20:18.935Z,100613.08
2022-10-30T08:22:54.174Z,100613.31
2022-10-30T08:25:29.262Z,100611.83
2022-10-30T08:28:05.168Z,100611.02
2022-10-30T08:30:38.943Z,100610.84
2022-10-30T08:33:11.479Z,100603.06
2022-10-30T08:35:57.274Z,100598.95
2022-10-30T08:38:26.478Z,100595.89
2022-10-30T08:41:13.983Z,100593.96
2022-10-30T08:43:44.938Z,100591.42
2022-10-30T08:46:12.387Z,100582.52
2022-10-30T08:48:41.718Z,100578.58
2022-10-30T08:51:09.560Z,100577.36
2022-10-30T08:53:41.927Z,100570.67
2022-10-30T08:56:13.772Z,100575.73
2022-10-30T08:59:02.879Z,100582.69
2022-10-30T09:01:30.522Z,100583.96
2022-10-30T09:04:16.191Z,100584.50
2022-10-30T09:07:02.710Z,100581.77
2022-10-30T09:09:59.440Z,100581.42
2022-10-30T09:12:27.218Z,100577.27
2022-10-30T09:14:54.549Z,100582.83
2022-10-30T09:17:22.234Z,100580.55
2022-10-30T09:19:49.595Z,100583.60
2022-10-30T09:22:21.740Z,100583.31
2022-10-30T09:24:49.519Z,100585.08
2022-10-30T09:27:40.412Z,100578.77
2022-10-30T09:30:09.429Z,100577.05
2022-10-30T09:32:42.518Z,100585.41
2022-10-30T09:35:12.320Z,100589.00
2022-10-30T09:37:41.623Z,100580.58
2022-10-30T09:40:25.245Z,100578.45
2022-10-30T09:42:52.857Z,100570.58
2022-10-30T09:45:54.056Z,100574.04
2022-10-30T09:48:28.577Z,100576.33
2022-10-30T09:51:15.280Z,100574.95
2022-10-30T09:53:55.119Z,100567.30
2022-10-30T09:57:07.402Z,100557.53
2022-10-30T09:59:46.257Z,100549.69
2022-10-30T10:02:35.660Z,100542.22
2022-10-30T10:05:30.320Z,100538.96
2022-10-30T10:08:39.367Z,100537.55
2022-10-30T10:11:49.612Z,100534.29
2022-10-30T10:14:22.019Z,100537.42
2022-10-30T10:16:53.209Z,100538.20
2022-10-30T10:19:47.119Z,100534.70
2022-10-30T10:22:21.625Z,100530.88
2022-10-30T10:24:48.971Z,100526.35
2022-10-30T10:27:31.298Z,100523.62
2022-10-30T10:30:10.261Z,100522.27
2022-10-30T10:32:47.217Z,100520.16
2022-10-30T10:35:17.418Z,100525.20
2022-10-30T10:38:22.559Z,100523.22
2022-10-30T10:41:10.998Z,100519.78
2022-10-30T10:44:01.502Z,100522.61
2022-10-30T10:47:15.659Z,100521.48
2022-10-30T10:50:02.567Z,100514.18
2022-10-30T10:52:39.496Z,100513.92
2022-10-30T10:55:29.537Z,100514.50
2022-10-30T10:58:00.047Z,100510.98
2022-10-30T11:00:29.389Z,100509.98
2022-10-30T11:03:03.952Z,100509.08
2022-10-30T11:06:01.337Z,100509.54
2022-10-30T11:08:31.061Z,100507.29
2022-10-30T11:11:06.322Z,100504.88
2022-10-30T11:13:41.672Z,100504.91
2022-10-30T11:16:37.057Z,100507.24
2022-10-30T11:19:09.224Z,100504.00
2022-10-30T11:21:42.599Z,100503.38
2022-10-30T11:24:36.171Z,100501.64
2022-10-30T11:27:27.421Z,100495.61
2022-10-30T11:30:01.494Z,100496.73
2022-10-30T11:32:31.023Z,100496.48
2022-10-30T11:35:10.438Z,100494.05
2022-10-30T11:37:40.188Z,100491.84
2022-10-30T11:40:10.790Z,100498.29
2022-10-30T11:42:40.078Z,100502.80
2022-10-30T11:45:17.956Z,100497.91
2022-10-30T11:47:46.462Z,100490.80
2022-10-30T11:50:22.778Z,100487.34
2022-10-30T11:52:53.881Z,100482.59
2022-10-30T11:55:42.112Z,100481.84
2022-10-30T11:58:10.483Z,100481.61
2022-10-30T12:00:38.785Z,100476.12
2022-10-30T12:03:35.922Z,100477.17
2022-10-30T12:06:19.653Z,100478.70
2022-10-30T12:09:00.541Z,100479.81
2022-10-30T12:11:33.618Z,100479.42
2022-10-30T12:14:01.487Z,100482.48
2022-10-30T12:16:29.166Z,100486.45
2022-10-30T12:19:06.329Z,100482.02
2022-10-30T12:21:38.487Z,100483.34
2022-10-30T12:24:09.795Z,100482.04
2022-10-30T12:26:38.834Z,100481.52
2022-10-30T12:29:13.030Z,100482.64
2022-10-30T12:31:49.829Z,100477.70
2022-10-30T12:34:31.322Z,100471.02
2022-10-30T12:37:33.089Z,100465.27
2022-10-30T12:40:04.751Z,100463.20
2022-10-30T12:42:37.968Z,100461.59
2022-10-30T12:45:14.382Z,100457.20
2022-10-30T12:47:44.912Z,100454.11
2022-10-30T12:50:30.743Z,100454.10
2022-10-30T12:53:08.473Z,100450.65
2022-10-30T12:55:39.770Z,100449.39
2022-10-30T12:58:28.910Z,100444.12
2022-10-30T13:01:02.890Z,100444.91
2022-10-30T13:03:53.946Z,100450.07
2022-10-30T13:06:25.411Z,100454.87
2022-10-30T13:09:26.848Z,100456.63
2022-10-30T13:12:05.589Z,100446.23
2022-10-30T13:14:40.965Z,100442.59
2022-10-30T13:17:15.448Z,100446.15
2022-10-30T13:19:45.390Z,100444.49
2022-10-30T13:22:31.550Z,100446.02
2022-10-30T13:25:17.725Z,100439.80
2022-10-30T13:27:44.890Z,100441.77
2022-10-30T13:30:22.590Z,100443.40
2022-10-30T13:33:28.017Z,100440.48
2022-10-30T13:36:07.167Z,100440.12
2022-10-30T13:38:59.516Z,100439.83
2022-10-30T13:41:46.209Z,100443.55
2022-10-30T13:44:16.430Z,100439.02
2022-10-30T13:47:06.704Z,100439.58
2022-10-30T13:50:01.609Z,100438.10
2022-10-30T13:52:31.746Z,100440.42
2022-10-30T13:55:07.817Z,100434.89
2022-10-30T13:57:59.448Z,100435.86
2022-10-30T14:01:05.291Z,100430.90
2022-10-30T14:03:38.569Z,100429.28
2022-10-30T14:06:30.009Z,100423.15
2022-10-30T14:09:35.649Z,100426.28
2022-10-30T14:12:40.677Z,100421.27
2022-10-30T14:15:25.047Z,100419.80
2022-10-30T14:18:15.530Z,100418.45
2022-10-30T14:20:46.661Z,100422.98
2022-10-30T14:23:13.803Z,100421.37
2022-10-30T14:25:41.469Z,100421.64
2022-10-30T14:28:21.750Z,100420.02
2022-10-30T14:31:02.761Z,100424.17
2022-10-30T14:33:38.113Z,100423.83
2022-10-30T14:36:19.883Z,100421.71
2022-10-30T14:39:15.370Z,100419.20
2022-10-30T14:41:57.781Z,100416.77
2022-10-30T14:44:31.067Z,100417.02
2022-10-30T14:47:21.350Z,100413.95
2022-10-30T14:49:54.883Z,100409.66
2022-10-30T14:52:41.669Z,100406.23
2022-10-30T14:55:38.610Z,100408.80
2022-10-30T14:58:05.770Z,100410.23
2022-10-30T15:00:35.989Z,100410.02
2022-10-30T15:03:12.437Z,100407.83
2022-10-30T15:05:57.209Z,100407.39
2022-10-30T15:09:00.014Z,100413.17
2022-10-30T15:11:56.854Z,100408.55
2022-10-30T15:17:33.951Z,100411.08
2022-10-30T15:20:04.671Z,100414.94
2022-10-30T15:22:32.949Z,100411.79
2022-10-30T15:25:02.367Z,100412.73
2022-10-30T15:27:30.327Z,100415.01
2022-10-30T15:30:01.020Z,100411.09
2022-10-30T15:32:28.605Z,100409.70
2022-10-30T15:35:04.691Z,100410.88
2022-10-30T15:37:33.889Z,100411.33
2022-10-30T15:40:21.958Z,100409.41
2022-10-30T15:42:49.795Z,100409.73
2022-10-30T15:45:20.089Z,100413.26
2022-10-30T15:47:50.390Z,100410.50
2022-10-30T15:50:18.265Z,100411.57
2022-10-30T15:52:46.346Z,100412.50
2022-10-30T15:55:17.212Z,100414.30
2022-10-30T15:58:07.882Z,100415.34
2022-10-30T16:00:37.623Z,100417.63
2022-10-30T16:03:07.403Z,100414.64
2022-10-30T16:05:35.584Z,100411.90
2022-10-30T16:08:04.376Z,100411.70
2022-10-30T16:10:35.568Z,100410.08
2022-10-30T16:13:03.924Z,100411.18
2022-10-30T16:15:34.744Z,100412.91
2022-10-30T16:18:07.534Z,100409.69
2022-10-30T16:20:37.130Z,100407.27
2022-10-30T16:23:05.103Z,100406.86
2022-10-30T16:25:34.523Z,100405.25
2022-10-30T16:28:02.557Z,100407.16
2022-10-30T16:30:32.593Z,100405.29
2022-10-30T16:33:00.751Z,100403.18
2022-10-30T16:35:28.629Z,100406.55
2022-10-30T16:37:57.132Z,100409.86
2022-10-30T16:40:27.219Z,100413.17
2022-10-30T16:42:59.227Z,100415.11
2022-10-30T16:45:32.491Z,100418.52
2022-10-30T16:48:08.452Z,100420.02
2022-10-30T16:50:38.164Z,100420.59
2022-10-30T16:53:24.948Z,100418.50
2022-10-30T16:55:54.421Z,100419.13
2022-10-30T16:58:26.794Z,100420.16
2022-10-30T17:01:04.959Z,100421.73
2022-10-30T17:03:37.871Z,100426.33
2022-10-30T17:06:08.758Z,100430.16
2022-10-30T17:08:44.330Z,100435.75
2022-10-30T17:11:20.093Z,100435.51
2022-10-30T17:13:53.252Z,100433.59
2022-10-30T17:16:30.906Z,100436.36
2022-10-30T17:19:00.420Z,100435.80
2022-10-30T17:21:37.865Z,100437.70
2022-10-30T17:24:06.284Z,100443.55
2022-10-30T17:26:39.995Z,100443.91
2022-10-30T17:29:07.410Z,100448.90
2022-10-30T17:31:38.945Z,100450.24
2022-10-30T17:34:14.651Z,100451.55
2022-10-30T17:36:42.769Z,100453.08
2022-10-30T17:39:11.649Z,100459.98
2022-10-30T17:41:40.251Z,100461.58
2022-10-30T17:44:19.117Z,100459.58
2022-10-30T17:46:46.837Z,100459.11
2022-10-30T17:49:20.895Z,100455.55
2022-10-30T17:51:49.641Z,100458.59
2022-10-30T17:54:17.592Z,100456.98
2022-10-30T17:56:45.200Z,100458.38
2022-10-30T17:59:14.148Z,100460.15
2022-10-30T18:01:42.246Z,100462.32
2022-10-30T18:04:20.962Z,100458.13
2022-10-30T18:06:50.424Z,100457.16
2022-10-30T18:09:18.197Z,100456.93
2022-10-30T18:11:46.910Z,100459.69
2022-10-30T18:14:15.763Z,100458.95
2022-10-30T18:16:43.626Z,100459.98
2022-10-30T18:19:12.752Z,100460.85
2022-10-30T18:21:41.430Z,100460.05
2022-10-30T18:24:14.040Z,100458.40
2022-10-30T18:26:42.993Z,100456.67
2022-10-30T18:29:11.790Z,100454.20
2022-10-30T18:31:41.199Z,100460.69
2022-10-30T18:34:21.563Z,100464.17
2022-10-30T18:36:50.929Z,100462.99
2022-10-30T18:39:18.784Z,100464.76
2022-10-30T18:41:48.116Z,100464.04
2022-10-30T18:44:19.746Z,100465.18
2022-10-30T18:46:48.969Z,100463.93
2022-10-30T18:49:17.551Z,100461.81
2022-10-30T18:51:45.650Z,100458.63
2022-10-30T18:54:17.972Z,100464.70
2022-10-30T18:56:46.167Z,100465.77
2022-10-30T18:59:13.962Z,100464.10
2022-10-30T19:01:41.949Z,100466.14
2022-10-30T19:04:11.411Z,100468.48
2022-10-30T19:06:39.720Z,100473.77
2022-10-30T19:09:08.518Z,100471.29
2022-10-30T19:11:38.458Z,100474.10
2022-10-30T19:14:15.667Z,100475.68
2022-10-30T19:16:45.070Z,100476.40
2022-10-30T19:19:15.785Z,100472.06
2022-10-30T19:21:44.496Z,100472.02
2022-10-30T19:24:16.760Z,100468.56
2022-10-30T19:26:45.355Z,100465.70
2022-10-30T19:29:13.710Z,100463.45
2022-10-30T19:31:41.289Z,100466.42
2022-10-30T19:34:12.190Z,100466.91
2022-10-30T19:36:41.307Z,100466.13
2022-10-30T19:39:14.515Z,100466.95
2022-10-30T19:41:45.309Z,100467.89
2022-10-30T19:44:14.435Z,100463.23
2022-10-30T19:46:43.209Z,100464.95
2022-10-30T19:49:19.738Z,100467.94
2022-10-30T19:51:47.626Z,100466.47
2022-10-30T19:54:15.932Z,100470.70
2022-10-30T19:56:45.315Z,100467.48
2022-10-30T19:59:15.735Z,100468.90
2022-10-30T20:01:45.796Z,100467.79
2022-10-30T20:04:14.505Z,100471.17
2022-10-30T20:06:44.208Z,100469.06
2022-10-30T20:09:13.433Z,100471.12
2022-10-30T20:11:41.528Z,100470.48
2022-10-30T20:14:10.647Z,100472.48
2022-10-30T20:16:39.526Z,100470.73
2022-10-30T20:19:27.782Z,100468.77
2022-10-30T20:21:57.067Z,100474.02
2022-10-30T20:24:26.279Z,100474.42
2022-10-30T20:26:57.170Z,100477.34
2022-10-30T20:29:25.689Z,100479.90
2022-10-30T20:31:53.844Z,100478.75
2022-10-30T20:34:21.614Z,100485.61
2022-10-30T20:36:50.177Z,100488.63
2022-10-30T20:39:17.769Z,100484.87
2022-10-30T20:41:46.602Z,100485.75
2022-10-30T20:44:17.484Z,100485.06
2022-10-30T20:46:45.865Z,100483.52
2022-10-30T20:49:17.678Z,100487.54
2022-10-30T20:51:46.734Z,100485.83
2022-10-30T20:54:14.477Z,100488.42
2022-10-30T20:56:42.758Z,100491.75
2022-10-30T20:59:10.230Z,100491.17
2022-10-30T21:01:37.813Z,100493.71
2022-10-30T21:04:06.370Z,100493.56
2022-10-30T21:06:33.789Z,100490.16
2022-10-30T21:09:01.290Z,100490.71
2022-10-30T21:11:29.210Z,100494.60
2022-10-30T21:13:57.529Z,100494.80
2022-10-30T21:16:25.390Z,100495.85
2022-10-30T21:18:55.113Z,100496.02
2022-10-30T21:21:25.594Z,100493.20
2022-10-30T21:23:58.299Z,100493.92
2022-10-30T21:26:25.845Z,100492.94
2022-10-30T21:28:53.517Z,100497.79
2022-10-30T21:31:20.689Z,100498.79
2022-10-30T21:33:50.431Z,100500.02
2022-10-30T21:36:20.191Z,100501.84
2022-10-30T21:38:47.744Z,100499.96
2022-10-30T21:41:19.363Z,100497.77
2022-10-30T21:43:53.730Z,100501.79
2022-10-30T21:46:22.218Z,100504.67
2022-10-30T21:48:49.663Z,100504.30
2022-10-30T21:51:26.973Z,100501.95
2022-10-30T21:53:55.377Z,100500.84
2022-10-30T21:56:24.861Z,100501.16
2022-10-30T21:58:52.624Z,100500.46
2022-10-30T22:01:25.903Z,100501.55
2022-10-30T22:03:53.259Z,100499.39
2022-10-30T22:06:22.435Z,100499.17
2022-10-30T22:08:51.820Z,100495.85
2022-10-30T22:11:19.870Z,100496.23
2022-10-30T22:13:48.184Z,100496.40
2022-10-30T22:16:16.043Z,100499.03
2022-10-30T22:18:43.110Z,100499.48
2022-10-30T22:21:11.920Z,100497.89
2022-10-30T22:23:40.534Z,100501.38
2022-10-30T22:26:19.817Z,100502.05
2022-10-30T22:28:47.327Z,100497.06
2022-10-30T22:31:19.158Z,100503.92
2022-10-30T22:33:46.319Z,100500.24
2022-10-30T22:36:18.139Z,100497.89
2022-10-30T22:38:45.941Z,100497.04
2022-10-30T22:41:18.990Z,100494.38
2022-10-30T22:43:47.658Z,100493.90
2022-10-30T22:46:16.545Z,100495.09
2022-10-30T22:48:44.249Z,100495.14
2022-10-30T22:51:15.487Z,100497.36
2022-10-30T22:53:45.690Z,100497.11
2022-10-30T22:56:17.289Z,100497.97
2022-10-30T22:58:45.811Z,100495.98
2022-10-30T23:01:23.795Z,100497.08
2022-10-30T23:03:52.319Z,100497.98
2022-10-30T23:06:20.393Z,100493.98
2022-10-30T23:08:47.794Z,100496.43
2022-10-30T23:11:16.129Z,100493.66
2022-10-30T23:13:46.017Z,100493.34
2022-10-30T23:16:18.287Z,100493.23
2022-10-30T23:18:46.369Z,100493.77
2022-10-30T23:21:16.538Z,100496.45
2022-10-30T23:23:44.235Z,100497.45
2022-10-30T23:26:22.473Z,100498.38
2022-10-30T23:28:51.388Z,100501.16
2022-10-30T23:31:20.540Z,100500.51
2022-10-30T23:33:48.890Z,100502.16
2022-10-30T23:36:16.845Z,100503.46
2022-10-30T23:38:43.942Z,100505.17
2022-10-30T23:41:11.189Z,100502.00
2022-10-30T23:43:38.298Z,100505.43
2022-10-30T23:46:06.607Z,100502.17
2022-10-30T23:48:33.680Z,100507.58
2022-10-30T23:51:09.511Z,100504.03
2022-10-30T23:53:36.788Z,100500.98
2022-10-30T23:56:05.540Z,100503.53
2022-10-30T23:58:33.004Z,100504.80
